Time;durP1;ratioP1;P1;durP2;ratioP2;P2;SDS_P1;SDS_P2;PMS_P1;PMS_P2;Temp;Humidity;BMP_temperature;BMP_pressure;BME280_temperature;BME280_humidity;BME280_pressure;Samples;Min_cycle;Max_cycle;Signal;HPM_P1;HPM_P2
2022/11/02 00:04:43;;;;;;;1.83;0.60;;;15.00;98.60;;;;;;10455495;28;20029;-62
2022/11/02 00:09:43;;;;;;;3.65;1.13;;;15.00;98.70;;;;;;10453253;28;20027;-62
2022/11/02 00:14:44;;;;;;;3.17;0.98;;;14.90;98.70;;;;;;10451672;28;20025;-65
2022/11/02 00:19:45;;;;;;;3.35;0.65;;;14.90;98.70;;;;;;10447901;28;20146;-61
2022/11/02 00:24:46;;;;;;;1.92;0.90;;;14.90;98.80;;;;;;10469749;28;20040;-62
2022/11/02 00:29:46;;;;;;;3.70;0.98;;;14.90;98.80;;;;;;10452544;28;20048;-61
2022/11/02 00:34:47;;;;;;;2.58;1.15;;;14.90;98.80;;;;;;10456031;28;20037;-62
2022/11/02 00:39:48;;;;;;;2.08;0.73;;;14.90;98.90;;;;;;10456286;28;20025;-63
2022/11/02 00:44:48;;;;;;;3.33;0.80;;;14.90;98.90;;;;;;10452159;28;20083;-62
2022/11/02 00:49:49;;;;;;;3.95;1.10;;;14.90;98.90;;;;;;10450502;28;20044;-61
2022/11/02 00:54:50;;;;;;;3.13;0.77;;;14.90;99.20;;;;;;10449311;28;20480;-61
2022/11/02 00:59:51;;;;;;;3.05;0.68;;;14.90;99.00;;;;;;10447550;28;20055;-67
2022/11/02 01:04:52;;;;;;;3.00;0.55;;;14.90;99.00;;;;;;10451192;28;20051;-61
2022/11/02 01:09:53;;;;;;;1.98;0.80;;;14.90;99.10;;;;;;10448977;28;20406;-62
2022/11/02 01:14:53;;;;;;;2.85;0.65;;;14.90;99.10;;;;;;10446982;28;20036;-62
2022/11/02 01:19:54;;;;;;;3.88;1.33;;;14.90;99.20;;;;;;10447322;28;20032;-62
2022/11/02 01:24:54;;;;;;;1.83;0.60;;;14.80;99.20;;;;;;10451527;28;20037;-61
2022/11/02 01:29:55;;;;;;;2.47;0.60;;;14.80;99.20;;;;;;10448655;28;20044;-62
2022/11/02 01:34:56;;;;;;;3.08;0.80;;;14.80;99.20;;;;;;10464914;28;20142;-62
2022/11/02 01:39:57;;;;;;;2.83;0.80;;;14.80;99.20;;;;;;10456227;28;20396;-61
2022/11/02 01:44:58;;;;;;;4.30;1.00;;;14.80;99.20;;;;;;10453275;28;20065;-67
2022/11/02 01:50:09;;;;;;;1.58;1.00;;;14.80;99.20;;;;;;10450870;28;20036;-61
2022/11/02 01:55:12;;;;;;;3.00;0.82;;;14.80;99.30;;;;;;10443225;28;20503;-61
2022/11/02 02:00:16;;;;;;;1.85;1.25;;;14.80;99.50;;;;;;10449253;28;20489;-62
2022/11/02 02:05:19;;;;;;;2.17;0.90;;;14.80;99.30;;;;;;10447507;28;20040;-62
2022/11/02 02:10:20;;;;;;;3.38;0.88;;;14.80;99.30;;;;;;10444955;28;20025;-62
2022/11/02 02:15:30;;;;;;;3.13;0.90;;;14.80;99.30;;;;;;10458069;28;20024;-61
2022/11/02 02:20:43;;;;;;;3.75;0.80;;;14.80;99.30;;;;;;10460996;28;20029;-61
2022/11/02 02:26:34;;;;;;;3.33;0.93;;;14.70;99.40;;;;;;10461233;28;20118;-61
2022/11/02 02:31:42;;;;;;;4.05;0.98;;;14.70;99.40;;;;;;10328434;28;20506;-61
2022/11/02 02:37:01;;;;;;;2.70;0.88;;;14.70;99.40;;;;;;10434704;28;20522;-62
2022/11/02 02:42:17;;;;;;;2.95;0.80;;;14.70;99.40;;;;;;10457633;28;20040;-61
2022/11/02 02:47:22;;;;;;;2.35;0.85;;;14.60;99.40;;;;;;10453408;28;20036;-62
2022/11/02 02:52:26;;;;;;;2.15;0.80;;;14.60;99.40;;;;;;10460749;28;20029;-62
2022/11/02 02:57:30;;;;;;;2.70;0.75;;;14.60;99.40;;;;;;10456180;28;20025;-61
2022/11/02 03:02:34;;;;;;;1.55;0.60;;;14.60;99.40;;;;;;10457745;28;20451;-62
2022/11/02 03:07:35;;;;;;;3.17;0.70;;;14.50;99.60;;;;;;10460089;28;20021;-62
2022/11/02 03:12:53;;;;;;;2.15;0.70;;;14.60;99.40;;;;;;10460461;28;20025;-62
2022/11/02 03:18:13;;;;;;;0.82;0.43;;;14.60;99.30;;;;;;10453602;28;20063;-61
2022/11/02 03:23:23;;;;;;;1.98;0.52;;;14.50;99.30;;;;;;10455439;28;20083;-62
2022/11/02 03:28:35;;;;;;;2.35;1.00;;;14.50;99.30;;;;;;10457861;28;20053;-61
2022/11/02 03:33:56;;;;;;;1.95;0.60;;;14.50;99.30;;;;;;10452034;28;20010;-62
2022/11/02 03:39:07;;;;;;;1.45;0.90;;;14.50;99.30;;;;;;10451294;28;20103;-67
2022/11/02 03:44:13;;;;;;;2.42;0.55;;;14.40;99.20;;;;;;10458998;28;20029;-63
2022/11/02 03:49:17;;;;;;;1.38;0.47;;;14.40;99.20;;;;;;10453564;28;20405;-62
2022/11/02 03:54:37;;;;;;;1.20;0.60;;;14.40;99.20;;;;;;10452111;28;20029;-62
2022/11/02 03:59:37;;;;;;;2.78;0.50;;;14.40;99.10;;;;;;10450874;28;20108;-63
2022/11/02 04:04:51;;;;;;;2.85;0.75;;;14.40;99.10;;;;;;10459223;28;20345;-62
2022/11/02 04:09:52;;;;;;;2.05;0.50;;;14.40;99.10;;;;;;10453678;28;20587;-61
2022/11/02 04:14:53;;;;;;;1.58;0.40;;;14.30;99.10;;;;;;10452352;28;20036;-62
2022/11/02 04:19:55;;;;;;;2.88;0.77;;;14.30;99.10;;;;;;10457951;28;20040;-62
2022/11/02 04:30:16;;;;;;;3.38;0.57;;;14.30;99.10;;;;;;10447655;28;20083;-61
2022/11/02 04:35:17;;;;;;;2.05;0.70;;;14.30;99.00;;;;;;10451849;28;20378;-61
2022/11/02 04:40:17;;;;;;;3.55;0.85;;;14.30;99.00;;;;;;10453836;28;20025;-62
2022/11/02 04:45:18;;;;;;;3.30;0.80;;;14.30;99.00;;;;;;10451144;28;20033;-63
2022/11/02 04:50:19;;;;;;;2.50;0.65;;;14.30;99.00;;;;;;10451949;28;20059;-61
2022/11/02 04:55:20;;;;;;;3.95;0.82;;;14.30;99.00;;;;;;10453454;28;20040;-61
2022/11/02 05:00:21;;;;;;;4.97;0.80;;;14.20;99.00;;;;;;10455517;28;20098;-61
2022/11/02 05:05:22;;;;;;;3.10;0.70;;;14.20;99.00;;;;;;10449384;28;20043;-63
2022/11/02 05:10:23;;;;;;;4.10;0.80;;;14.20;99.00;;;;;;10451586;28;20041;-62
2022/11/02 05:15:23;;;;;;;4.75;0.70;;;14.30;99.00;;;;;;10447246;28;20036;-63
2022/11/02 05:20:24;;;;;;;3.80;0.70;;;14.20;99.00;;;;;;10449158;28;20039;-62
2022/11/02 05:25:25;;;;;;;4.00;0.82;;;14.20;99.00;;;;;;10450536;28;20037;-62
2022/11/02 05:30:25;;;;;;;3.03;1.23;;;14.20;99.00;;;;;;10449334;28;20419;-61
2022/11/02 05:35:26;;;;;;;3.05;0.70;;;14.20;99.00;;;;;;10450039;28;20064;-62
2022/11/02 05:40:27;;;;;;;2.85;0.70;;;14.20;99.00;;;;;;10453395;28;20043;-62
2022/11/02 05:45:28;;;;;;;3.30;0.80;;;14.10;99.00;;;;;;10449775;28;20642;-64
2022/11/02 05:50:29;;;;;;;5.55;0.90;;;14.20;99.10;;;;;;10445537;28;20066;-61
2022/11/02 05:55:29;;;;;;;2.38;0.75;;;14.20;99.10;;;;;;10437394;28;20701;-62
2022/11/02 06:00:30;;;;;;;3.22;0.85;;;14.10;99.10;;;;;;10447748;28;20634;-61
2022/11/02 06:05:31;;;;;;;6.55;1.67;;;14.10;99.20;;;;;;10443364;28;20106;-62
2022/11/02 06:10:31;;;;;;;3.13;1.00;;;14.20;99.20;;;;;;10443767;28;20029;-62
2022/11/02 06:15:32;;;;;;;4.30;1.42;;;14.00;99.20;;;;;;10446446;28;20037;-62
2022/11/02 06:20:33;;;;;;;4.57;0.88;;;14.10;99.20;;;;;;10442524;28;20374;-61
2022/11/02 06:25:34;;;;;;;2.83;0.95;;;14.10;99.30;;;;;;10446273;28;20495;-61
2022/11/02 06:30:35;;;;;;;8.93;1.95;;;14.00;99.50;;;;;;10442659;28;20045;-62
2022/11/02 06:35:35;;;;;;;4.30;0.82;;;14.10;99.30;;;;;;10445896;28;20025;-62
2022/11/02 06:40:36;;;;;;;2.63;0.80;;;14.10;99.30;;;;;;10447585;28;20025;-63
2022/11/02 06:45:37;;;;;;;3.80;1.10;;;14.10;99.40;;;;;;10448087;28;20057;-62
2022/11/02 06:50:38;;;;;;;3.20;1.02;;;14.10;99.40;;;;;;10430335;28;20033;-66
2022/11/02 06:55:42;;;;;;;6.90;1.40;;;14.10;99.40;;;;;;10424876;28;20362;-61
2022/11/02 07:00:43;;;;;;;5.05;1.05;;;14.10;99.50;;;;;;10371388;28;20413;-63
2022/11/02 07:05:50;;;;;;;5.03;0.95;;;14.10;99.50;;;;;;10367314;28;20147;-62
2022/11/02 07:10:52;;;;;;;3.22;1.10;;;14.10;99.50;;;;;;10375202;28;20469;-64
2022/11/02 07:15:53;;;;;;;4.80;1.20;;;14.10;99.50;;;;;;10370729;28;20206;-64
2022/11/02 07:20:57;;;;;;;3.90;1.77;;;14.10;99.50;;;;;;10380358;28;20028;-65
2022/11/02 07:26:00;;;;;;;6.00;0.85;;;14.10;99.50;;;;;;10375557;28;20284;-61
2022/11/02 07:31:01;;;;;;;5.13;0.93;;;14.10;99.50;;;;;;10382041;28;20056;-64
2022/11/02 07:36:04;;;;;;;3.10;1.13;;;14.10;99.50;;;;;;10377982;28;20824;-61
2022/11/02 07:41:05;;;;;;;3.38;1.05;;;14.10;99.50;;;;;;10367155;28;20041;-61
2022/11/02 07:46:06;;;;;;;2.47;0.63;;;14.10;99.50;;;;;;10372892;28;20459;-61
2022/11/02 07:51:07;;;;;;;2.65;1.08;;;14.10;99.60;;;;;;10371059;28;20507;-61
2022/11/02 07:56:08;;;;;;;5.55;1.35;;;14.10;99.60;;;;;;10368176;28;20115;-61
2022/11/02 08:01:09;;;;;;;4.47;1.10;;;14.10;99.60;;;;;;10376010;28;20057;-60
2022/11/02 08:06:10;;;;;;;6.15;2.15;;;14.10;99.60;;;;;;10377100;28;20046;-61
2022/11/02 08:11:10;;;;;;;2.83;0.88;;;14.10;99.60;;;;;;10356713;28;20483;-62
2022/11/02 08:16:11;;;;;;;5.70;0.95;;;14.10;99.50;;;;;;10356222;28;20143;-61
2022/11/02 08:21:12;;;;;;;4.88;1.00;;;14.10;99.50;;;;;;10348461;28;20574;-61
2022/11/02 08:26:12;;;;;;;3.42;0.98;;;14.10;99.50;;;;;;10353005;28;20037;-62
2022/11/02 08:31:15;;;;;;;3.38;0.95;;;14.10;99.50;;;;;;10356785;28;20373;-61
2022/11/02 08:36:15;;;;;;;4.68;0.98;;;13.90;99.40;;;;;;10354088;28;20033;-61
2022/11/02 08:41:16;;;;;;;5.22;0.93;;;14.30;99.50;;;;;;10349979;28;20033;-62
2022/11/02 08:46:17;;;;;;;4.20;0.80;;;14.30;99.40;;;;;;10344507;28;20349;-62
2022/11/02 08:51:18;;;;;;;5.75;1.00;;;14.30;99.30;;;;;;10355732;28;20205;-60
2022/11/02 08:56:19;;;;;;;3.78;0.90;;;14.40;99.30;;;;;;10351974;28;20505;-60
2022/11/02 09:01:19;;;;;;;3.58;0.73;;;14.50;99.20;;;;;;10367323;28;20539;-63
2022/11/02 09:06:20;;;;;;;3.95;1.10;;;14.60;99.30;;;;;;10381658;28;20285;-61
2022/11/02 09:11:22;;;;;;;3.10;1.00;;;14.60;99.30;;;;;;10380509;28;20067;-61
2022/11/02 09:16:23;;;;;;;5.00;0.75;;;14.70;99.50;;;;;;10365392;28;20041;-61
2022/11/02 09:21:25;;;;;;;3.70;0.73;;;14.60;99.20;;;;;;10367419;28;20061;-61
2022/11/02 09:26:27;;;;;;;6.88;0.93;;;14.70;99.20;;;;;;10367244;28;20570;-61
2022/11/02 09:31:29;;;;;;;1.58;0.60;;;14.70;99.20;;;;;;10369532;28;20053;-61
2022/11/02 09:36:29;;;;;;;4.80;0.73;;;14.70;99.20;;;;;;10371686;28;20040;-61
2022/11/02 09:41:39;;;;;;;4.43;0.82;;;14.70;99.20;;;;;;10377955;28;20520;-61
2022/11/02 09:46:43;;;;;;;9.52;0.95;;;14.70;99.20;;;;;;10365612;28;20032;-61
2022/11/02 09:51:51;;;;;;;3.63;1.00;;;14.70;99.10;;;;;;10367105;28;20035;-61
2022/11/02 09:56:57;;;;;;;2.75;0.70;;;14.70;99.10;;;;;;10373960;28;20021;-61
2022/11/02 10:02:02;;;;;;;2.17;1.00;;;14.70;99.10;;;;;;10367578;28;20037;-61
2022/11/02 10:07:21;;;;;;;5.78;1.13;;;14.70;99.10;;;;;;10367131;28;20445;-61
2022/11/02 10:12:57;;;;;;;5.93;0.90;;;14.70;99.10;;;;;;10375145;28;20116;-61
2022/11/02 10:17:59;;;;;;;1.83;0.60;;;14.70;99.00;;;;;;10366445;28;20326;-61
2022/11/02 10:23:06;;;;;;;2.35;0.80;;;14.90;99.00;;;;;;10369553;28;20501;-61
2022/11/02 10:28:17;;;;;;;3.45;0.90;;;14.70;98.90;;;;;;10364325;28;20053;-61
2022/11/02 10:33:27;;;;;;;3.47;0.55;;;14.70;98.80;;;;;;10367280;28;20032;-61
2022/11/02 10:38:42;;;;;;;4.93;1.02;;;14.80;99.00;;;;;;10388891;28;20761;-64
2022/11/02 10:43:43;;;;;;;7.72;0.73;;;14.80;98.80;;;;;;10370113;28;20495;-61
2022/11/02 10:48:55;;;;;;;4.63;0.77;;;14.80;98.70;;;;;;10372835;28;20031;-61
2022/11/02 10:53:56;;;;;;;5.50;0.70;;;14.80;98.60;;;;;;10372735;28;20033;-61
2022/11/02 10:59:15;;;;;;;6.72;1.23;;;14.90;98.50;;;;;;10369937;28;20666;-65
2022/11/02 11:04:25;;;;;;;2.25;0.70;;;14.90;98.50;;;;;;10368412;28;20037;-61
2022/11/02 11:09:34;;;;;;;1.88;0.80;;;14.80;98.40;;;;;;10382490;28;20800;-61
2022/11/02 11:14:50;;;;;;;6.15;1.00;;;14.90;98.50;;;;;;10369995;28;20040;-62
2022/11/02 11:19:53;;;;;;;3.67;0.85;;;14.90;98.30;;;;;;10368418;28;20365;-62
2022/11/02 11:25:14;;;;;;;3.13;1.27;;;14.90;98.40;;;;;;10367027;28;20894;-62
2022/11/02 11:30:30;;;;;;;5.68;1.02;;;14.90;98.20;;;;;;10368282;28;20867;-64
2022/11/02 11:35:36;;;;;;;2.70;1.15;;;15.00;98.30;;;;;;10366914;28;20041;-61
2022/11/02 11:40:38;;;;;;;4.35;1.02;;;15.00;98.30;;;;;;10381786;28;20209;-61
2022/11/02 11:45:52;;;;;;;4.57;0.70;;;15.00;98.30;;;;;;10367399;28;20041;-61
2022/11/02 11:50:52;;;;;;;4.65;0.80;;;15.00;98.20;;;;;;10364450;28;20029;-60
2022/11/02 11:55:58;;;;;;;2.63;0.75;;;15.00;98.20;;;;;;10367240;28;20196;-60
2022/11/02 12:01:13;;;;;;;4.28;0.90;;;15.00;98.20;;;;;;10369947;28;20017;-62
2022/11/02 12:06:21;;;;;;;5.18;0.70;;;15.00;98.00;;;;;;10364656;28;20048;-61
2022/11/02 12:11:49;;;;;;;3.75;0.70;;;15.00;98.10;;;;;;10372475;28;20037;-60
2022/11/02 12:17:08;;;;;;;4.22;0.70;;;15.10;98.10;;;;;;10367597;28;20131;-61
2022/11/02 12:22:18;;;;;;;4.53;1.02;;;15.10;98.10;;;;;;10365332;28;20357;-60
2022/11/02 12:27:35;;;;;;;3.78;0.70;;;15.10;98.10;;;;;;10367490;28;20048;-61
2022/11/02 12:33:02;;;;;;;4.53;0.70;;;15.20;98.20;;;;;;10366460;28;20032;-62
2022/11/02 12:38:42;;;;;;;4.88;0.70;;;15.20;98.00;;;;;;10379291;28;20624;-61
2022/11/02 12:43:48;;;;;;;4.57;0.85;;;15.20;98.20;;;;;;10363523;28;20037;-61
2022/11/02 12:49:20;;;;;;;3.50;0.93;;;15.20;98.20;;;;;;10366450;28;20101;-63
2022/11/02 12:54:27;;;;;;;5.68;0.90;;;15.10;98.10;;;;;;10364163;28;20285;-63
2022/11/02 12:59:31;;;;;;;5.85;0.73;;;15.20;98.10;;;;;;10368224;28;20934;-62
2022/11/02 13:04:45;;;;;;;2.83;0.65;;;15.20;98.00;;;;;;10348168;28;20045;-62
2022/11/02 13:09:59;;;;;;;2.83;1.15;;;15.20;98.20;;;;;;10362247;28;20144;-62
2022/11/02 13:15:02;;;;;;;3.55;0.90;;;15.30;98.10;;;;;;10352971;28;20148;-62
2022/11/02 13:20:17;;;;;;;2.45;0.60;;;15.20;98.20;;;;;;10347210;28;20033;-62
2022/11/02 13:25:33;;;;;;;6.13;0.90;;;15.10;98.10;;;;;;10357349;28;20314;-63
2022/11/02 13:30:34;;;;;;;3.63;0.60;;;15.20;98.10;;;;;;10363762;28;20459;-65
2022/11/02 13:35:41;;;;;;;9.80;1.17;;;15.20;98.20;;;;;;10364557;28;20318;-61
2022/11/02 13:40:53;;;;;;;4.43;0.93;;;15.20;98.20;;;;;;10367891;28;20507;-65
2022/11/02 13:46:21;;;;;;;3.00;0.77;;;15.20;98.20;;;;;;10356755;28;20132;-61
2022/11/02 13:51:38;;;;;;;1.70;0.67;;;15.00;98.00;;;;;;10344746;28;20021;-62
2022/11/02 13:56:40;;;;;;;3.47;0.77;;;15.30;98.10;;;;;;10338526;28;20674;-61
2022/11/02 14:01:43;;;;;;;6.07;1.02;;;15.30;98.10;;;;;;10348579;28;20392;-66
2022/11/02 14:07:13;;;;;;;5.53;0.85;;;15.30;98.00;;;;;;10348124;28;20464;-63
2022/11/02 14:12:20;;;;;;;3.95;0.85;;;15.40;97.90;;;;;;10349409;28;20148;-64
2022/11/02 14:17:21;;;;;;;2.00;0.60;;;15.40;97.80;;;;;;10356112;28;20029;-62
2022/11/02 14:22:22;;;;;;;5.80;0.90;;;15.40;97.90;;;;;;10351496;28;20267;-62
2022/11/02 14:27:23;;;;;;;3.25;1.00;;;15.40;97.90;;;;;;10367471;28;20045;-63
2022/11/02 14:32:48;;;;;;;4.93;0.90;;;15.40;97.80;;;;;;10369637;28;20457;-61
2022/11/02 14:38:07;;;;;;;3.20;1.50;;;15.50;97.80;;;;;;10380233;28;20382;-63
2022/11/02 14:43:27;;;;;;;8.77;1.52;;;15.40;97.20;;;;;;10359539;28;20856;-63
2022/11/02 14:48:31;;;;;;;5.95;1.30;;;15.20;96.80;;;;;;10365991;28;20033;-62
2022/11/02 14:53:35;;;;;;;5.03;1.20;;;15.00;96.90;;;;;;10369126;28;21037;-63
2022/11/02 14:58:47;;;;;;;8.70;1.35;;;14.70;96.90;;;;;;10364308;28;20032;-64
2022/11/02 15:03:49;;;;;;;4.10;1.30;;;14.60;96.60;;;;;;10372251;28;20041;-63
2022/11/02 15:08:58;;;;;;;7.55;1.35;;;14.50;96.70;;;;;;10382864;28;20295;-63
2022/11/02 15:13:59;;;;;;;5.82;1.60;;;14.30;96.60;;;;;;10363198;28;20078;-62
2022/11/02 15:19:37;;;;;;;6.53;1.20;;;14.20;96.70;;;;;;10368910;28;20956;-63
2022/11/02 15:24:38;;;;;;;5.55;1.63;;;14.10;96.30;;;;;;10373702;28;20568;-64
2022/11/02 15:29:43;;;;;;;3.88;1.77;;;14.00;96.90;;;;;;10371311;28;20945;-62
2022/11/02 15:34:47;;;;;;;5.03;1.00;;;13.90;96.80;;;;;;10378298;28;20044;-65
2022/11/02 15:39:55;;;;;;;6.38;0.98;;;13.80;96.70;;;;;;10385422;28;20203;-62
2022/11/02 15:45:14;;;;;;;6.20;1.38;;;13.70;96.50;;;;;;10373831;28;20486;-62
2022/11/02 15:50:37;;;;;;;6.07;0.77;;;13.60;96.40;;;;;;10370110;28;20025;-62
2022/11/02 15:56:08;;;;;;;5.55;1.15;;;13.50;96.50;;;;;;10367664;28;20032;-62
2022/11/02 16:01:09;;;;;;;2.15;0.88;;;13.50;96.80;;;;;;10350091;28;20029;-62
2022/11/02 16:06:10;;;;;;;6.32;1.40;;;13.60;96.80;;;;;;10362671;28;20308;-63
2022/11/02 16:11:16;;;;;;;3.72;1.10;;;13.70;96.70;;;;;;10373484;28;20489;-62
2022/11/02 16:16:17;;;;;;;5.22;1.08;;;13.80;96.70;;;;;;10354255;28;20059;-63
2022/11/02 16:21:20;;;;;;;5.20;0.95;;;13.90;96.70;;;;;;10363636;28;20036;-62
2022/11/02 16:26:25;;;;;;;8.70;1.50;;;14.00;96.70;;;;;;10360192;28;20071;-62
2022/11/02 16:31:30;;;;;;;6.43;1.50;;;14.10;96.70;;;;;;10382496;28;20087;-62
2022/11/02 16:36:35;;;;;;;4.13;0.90;;;14.10;96.60;;;;;;10449324;28;20029;-61
2022/11/02 16:41:36;;;;;;;7.88;1.00;;;14.20;96.60;;;;;;10449367;28;20031;-61
2022/11/02 16:46:57;;;;;;;3.42;0.80;;;14.20;96.70;;;;;;10448163;28;20578;-61
2022/11/02 16:52:16;;;;;;;5.38;0.88;;;14.20;96.50;;;;;;10445709;28;20748;-61
2022/11/02 16:57:22;;;;;;;6.65;1.15;;;14.20;96.70;;;;;;10446998;28;20052;-63
2022/11/02 17:02:31;;;;;;;6.60;1.88;;;14.20;96.80;;;;;;10454142;28;20427;-63
2022/11/02 17:07:41;;;;;;;4.28;1.42;;;14.30;96.80;;;;;;10448901;28;20610;-61
2022/11/02 17:12:44;;;;;;;6.18;1.42;;;15.00;97.10;;;;;;10434192;28;20362;-63
2022/11/02 17:17:45;;;;;;;8.05;1.13;;;14.30;96.90;;;;;;10446838;28;20374;-62
2022/11/02 17:22:57;;;;;;;5.45;1.48;;;14.40;97.00;;;;;;10446744;28;20044;-62
2022/11/02 17:28:03;;;;;;;7.95;1.48;;;14.30;97.00;;;;;;10440979;28;20415;-64
2022/11/02 17:33:26;;;;;;;6.93;1.67;;;14.20;97.00;;;;;;10450454;28;20028;-62
2022/11/02 17:38:27;;;;;;;5.15;1.48;;;14.30;97.00;;;;;;10437511;28;20031;-64
2022/11/02 17:43:27;;;;;;;5.28;1.27;;;14.20;97.10;;;;;;10440185;28;20048;-62
2022/11/02 17:48:28;;;;;;;7.13;1.40;;;14.20;97.10;;;;;;10445247;28;20473;-62
2022/11/02 17:53:29;;;;;;;6.50;1.48;;;14.20;97.10;;;;;;10444406;28;20673;-62
2022/11/02 17:58:30;;;;;;;6.57;2.03;;;14.20;97.10;;;;;;10444197;28;20488;-63
2022/11/02 18:03:31;;;;;;;6.30;1.85;;;14.20;97.10;;;;;;10443989;28;20456;-63
2022/11/02 18:09:09;;;;;;;6.28;1.40;;;14.20;97.10;;;;;;10448357;28;20029;-62
2022/11/02 18:13:52;;;;;;;5.90;1.48;;;14.10;97.00;;;;;;10445913;28;20043;-62
2022/11/02 18:18:53;;;;;;;3.83;1.20;;;14.10;97.00;;;;;;10450925;28;20025;-62
2022/11/02 18:23:54;;;;;;;6.38;1.38;;;14.10;97.00;;;;;;10445390;28;20047;-68
2022/11/02 18:28:55;;;;;;;5.25;0.88;;;14.10;97.10;;;;;;10441814;28;20590;-63
2022/11/02 18:33:56;;;;;;;6.40;1.60;;;14.10;97.10;;;;;;10451898;28;20311;-62
2022/11/02 18:38:57;;;;;;;6.50;1.30;;;14.10;97.10;;;;;;10445659;28;20382;-63
2022/11/02 18:44:00;;;;;;;4.78;1.27;;;14.10;97.10;;;;;;10448228;28;20036;-62
2022/11/02 18:49:01;;;;;;;5.05;1.20;;;14.10;97.10;;;;;;10450129;28;20017;-63
2022/11/02 18:54:03;;;;;;;4.32;1.38;;;14.10;97.00;;;;;;10446663;28;20441;-63
2022/11/02 18:59:04;;;;;;;5.88;1.40;;;14.00;97.00;;;;;;10457796;28;20052;-63
2022/11/02 19:04:05;;;;;;;10.77;1.55;;;14.40;97.10;;;;;;10452401;28;20119;-63
2022/11/02 19:09:19;;;;;;;6.97;1.60;;;14.00;97.00;;;;;;10456131;28;20094;-68
2022/11/02 19:14:21;;;;;;;9.10;1.58;;;14.00;97.00;;;;;;10457083;28;20017;-69
2022/11/02 19:19:22;;;;;;;5.45;1.33;;;14.00;97.00;;;;;;10451845;28;20031;-62
2022/11/02 19:24:23;;;;;;;5.43;1.45;;;14.00;97.00;;;;;;10456979;28;20040;-65
2022/11/02 19:29:24;;;;;;;5.72;1.33;;;14.00;97.00;;;;;;10453416;28;20417;-62
2022/11/02 19:34:24;;;;;;;6.97;1.42;;;14.00;97.00;;;;;;10450827;28;20518;-62
2022/11/02 19:39:25;;;;;;;7.15;1.48;;;14.00;97.00;;;;;;10451062;28;20020;-62
2022/11/02 19:44:26;;;;;;;5.40;1.30;;;14.00;97.00;;;;;;10450996;28;20467;-62
2022/11/02 19:49:27;;;;;;;4.15;1.10;;;14.00;97.00;;;;;;10451234;28;20031;-63
2022/11/02 19:54:27;;;;;;;5.35;1.80;;;14.00;97.00;;;;;;10451280;28;20164;-63
2022/11/02 19:59:29;;;;;;;5.88;1.23;;;14.00;97.00;;;;;;10456179;28;20029;-62
2022/11/02 20:04:30;;;;;;;4.18;1.20;;;14.00;96.90;;;;;;10440304;28;20042;-62
2022/11/02 20:09:30;;;;;;;7.28;1.30;;;13.90;96.90;;;;;;10455762;28;20036;-64
2022/11/02 20:14:32;;;;;;;2.30;1.00;;;13.90;96.90;;;;;;10452920;28;20036;-62
2022/11/02 20:19:33;;;;;;;5.82;1.52;;;13.90;96.90;;;;;;10452538;28;20029;-63
2022/11/02 20:24:34;;;;;;;3.38;1.38;;;13.90;96.90;;;;;;10453348;28;20089;-62
2022/11/02 20:29:35;;;;;;;7.97;1.55;;;13.90;96.90;;;;;;10455468;28;20114;-62
2022/11/02 20:34:36;;;;;;;7.00;1.20;;;13.90;96.80;;;;;;10449453;28;20043;-62
2022/11/02 20:39:36;;;;;;;7.07;1.23;;;13.90;96.80;;;;;;10453609;28;20021;-63
2022/11/02 20:44:37;;;;;;;7.30;1.65;;;13.90;96.80;;;;;;10452589;28;20037;-62
2022/11/02 20:49:38;;;;;;;5.38;1.48;;;13.90;96.80;;;;;;10452872;28;20032;-62
2022/11/02 20:54:39;;;;;;;6.53;1.27;;;13.90;96.80;;;;;;10449861;28;20032;-62
2022/11/02 20:59:39;;;;;;;3.10;1.00;;;13.90;96.80;;;;;;10458211;28;20044;-62
2022/11/02 21:04:40;;;;;;;2.97;0.85;;;13.80;96.70;;;;;;10447638;28;20067;-62
2022/11/02 21:09:41;;;;;;;4.53;1.42;;;13.90;96.70;;;;;;10449142;28;20037;-63
2022/11/02 21:14:42;;;;;;;5.40;1.00;;;13.80;96.70;;;;;;10452401;28;20132;-63
2022/11/02 21:19:43;;;;;;;6.60;1.58;;;13.80;96.60;;;;;;10449485;28;20047;-63
2022/11/02 21:24:44;;;;;;;4.25;1.08;;;13.80;96.60;;;;;;10454833;28;20606;-64
2022/11/02 21:29:45;;;;;;;4.15;1.27;;;13.80;96.60;;;;;;10449317;28;20090;-63
2022/11/02 21:34:45;;;;;;;3.25;1.20;;;13.80;96.60;;;;;;10446932;28;20028;-62
2022/11/02 21:39:46;;;;;;;4.25;1.30;;;13.80;96.60;;;;;;10448906;28;20064;-62
2022/11/02 21:44:47;;;;;;;3.58;1.00;;;13.80;96.60;;;;;;10448661;28;20036;-63
2022/11/02 21:49:48;;;;;;;5.95;1.35;;;13.80;96.60;;;;;;10444403;28;20080;-63
2022/11/02 21:54:48;;;;;;;2.65;1.10;;;13.80;96.60;;;;;;10450371;28;20033;-63
2022/11/02 21:59:49;;;;;;;4.90;1.02;;;13.80;96.60;;;;;;10422915;28;20032;-63
2022/11/02 22:04:52;;;;;;;5.20;1.55;;;13.80;96.60;;;;;;10430059;28;20448;-63
2022/11/02 22:09:53;;;;;;;4.95;1.10;;;13.80;96.60;;;;;;10423784;28;20030;-63
2022/11/02 22:14:53;;;;;;;5.43;1.83;;;13.80;96.60;;;;;;10427545;28;20026;-63
2022/11/02 22:19:54;;;;;;;7.63;1.38;;;13.70;96.60;;;;;;10427817;28;20029;-63
2022/11/02 22:24:55;;;;;;;3.50;1.08;;;13.70;96.60;;;;;;10438663;28;20045;-63
2022/11/02 22:29:56;;;;;;;9.50;1.35;;;13.70;96.60;;;;;;10452449;28;20264;-63
2022/11/02 22:34:56;;;;;;;6.38;2.13;;;13.70;96.60;;;;;;10453834;28;20359;-63
2022/11/02 22:39:58;;;;;;;9.18;2.30;;;13.70;96.60;;;;;;10454056;28;20033;-63
2022/11/02 22:44:59;;;;;;;5.25;1.30;;;13.70;96.60;;;;;;10452360;28;20079;-62
2022/11/02 22:50:00;;;;;;;5.57;1.27;;;13.70;96.60;;;;;;10451012;28;20032;-62
2022/11/02 22:55:01;;;;;;;5.05;1.20;;;13.70;96.60;;;;;;10462581;28;20036;-64
2022/11/02 23:00:03;;;;;;;5.80;1.52;;;13.70;96.60;;;;;;10451849;28;20052;-63
2022/11/02 23:05:04;;;;;;;3.15;1.30;;;13.70;96.60;;;;;;10450114;28;20120;-63
2022/11/02 23:11:20;;;;;;;3.47;1.33;;;13.70;96.60;;;;;;10457420;28;20381;-63
2022/11/02 23:15:27;;;;;;;6.22;1.30;;;13.70;96.60;;;;;;10456824;28;20237;-63
2022/11/02 23:20:28;;;;;;;3.40;1.20;;;13.70;96.60;;;;;;10458071;28;20021;-62
2022/11/02 23:25:29;;;;;;;6.80;1.38;;;13.70;96.70;;;;;;10457122;28;20044;-65
2022/11/02 23:36:09;;;;;;;5.53;1.50;;;13.70;96.60;;;;;;10457135;28;20500;-63
2022/11/02 23:41:10;;;;;;;6.82;1.70;;;13.70;96.60;;;;;;10452899;28;20079;-63
2022/11/02 23:46:11;;;;;;;7.15;1.20;;;13.70;96.70;;;;;;10454083;28;20144;-63
2022/11/02 23:56:44;;;;;;;6.13;1.27;;;13.70;96.70;;;;;;10455439;28;20481;-63
